sensor_id;sensor_type;location;lat;lon;timestamp;P1;durP1;ratioP1;P2;durP2;ratioP2
35312;SDS011;21425;50.454;30.466;2022-11-03T00:02:18;35.67;;;15.50;;
35312;SDS011;21425;50.454;30.466;2022-11-03T00:04:43;34.10;;;14.75;;
35312;SDS011;21425;50.454;30.466;2022-11-03T00:07:09;29.83;;;13.40;;
35312;SDS011;21425;50.454;30.466;2022-11-03T00:09:35;37.13;;;15.70;;
35312;SDS011;21425;50.454;30.466;2022-11-03T00:12:00;33.20;;;15.88;;
35312;SDS011;21425;50.454;30.466;2022-11-03T00:14:26;33.35;;;14.57;;
35312;SDS011;21425;50.454;30.466;2022-11-03T00:16:52;35.40;;;14.98;;
35312;SDS011;21425;50.454;30.466;2022-11-03T00:19:18;33.33;;;15.27;;
35312;SDS011;21425;50.454;30.466;2022-11-03T00:21:44;37.05;;;15.95;;
35312;SDS011;21425;50.454;30.466;2022-11-03T00:24:10;34.00;;;15.55;;
35312;SDS011;21425;50.454;30.466;2022-11-03T00:26:36;30.88;;;15.63;;
35312;SDS011;21425;50.454;30.466;2022-11-03T00:29:09;39.67;;;15.75;;
35312;SDS011;21425;50.454;30.466;2022-11-03T00:31:38;35.10;;;15.48;;
35312;SDS011;21425;50.454;30.466;2022-11-03T00:34:05;35.30;;;16.40;;
35312;SDS011;21425;50.454;30.466;2022-11-03T00:36:33;37.70;;;16.23;;
35312;SDS011;21425;50.454;30.466;2022-11-03T00:39:00;40.58;;;18.10;;
35312;SDS011;21425;50.454;30.466;2022-11-03T00:41:27;35.20;;;16.75;;
35312;SDS011;21425;50.454;30.466;2022-11-03T00:43:53;37.10;;;17.27;;
35312;SDS011;21425;50.454;30.466;2022-11-03T00:46:19;40.65;;;17.40;;
35312;SDS011;21425;50.454;30.466;2022-11-03T00:48:46;41.95;;;17.17;;
35312;SDS011;21425;50.454;30.466;2022-11-03T00:51:19;38.40;;;17.35;;
35312;SDS011;21425;50.454;30.466;2022-11-03T00:53:49;38.45;;;17.67;;
35312;SDS011;21425;50.454;30.466;2022-11-03T00:56:20;40.30;;;18.02;;
35312;SDS011;21425;50.454;30.466;2022-11-03T00:58:47;39.58;;;18.15;;
35312;SDS011;21425;50.454;30.466;2022-11-03T01:01:18;43.65;;;17.77;;
35312;SDS011;21425;50.454;30.466;2022-11-03T01:06:34;40.33;;;19.15;;
35312;SDS011;21425;50.454;30.466;2022-11-03T01:11:42;42.38;;;18.50;;
35312;SDS011;21425;50.454;30.466;2022-11-03T01:14:38;33.70;;;16.70;;
35312;SDS011;21425;50.454;30.466;2022-11-03T01:17:16;44.67;;;16.73;;
35312;SDS011;21425;50.454;30.466;2022-11-03T01:19:41;38.67;;;17.92;;
35312;SDS011;21425;50.454;30.466;2022-11-03T01:22:07;37.83;;;17.23;;
35312;SDS011;21425;50.454;30.466;2022-11-03T01:24:34;34.88;;;17.05;;
35312;SDS011;21425;50.454;30.466;2022-11-03T01:27:00;36.55;;;16.45;;
35312;SDS011;21425;50.454;30.466;2022-11-03T01:29:25;42.30;;;17.80;;
35312;SDS011;21425;50.454;30.466;2022-11-03T01:31:51;39.03;;;17.17;;
35312;SDS011;21425;50.454;30.466;2022-11-03T01:34:18;46.05;;;17.27;;
35312;SDS011;21425;50.454;30.466;2022-11-03T01:36:44;38.00;;;17.17;;
35312;SDS011;21425;50.454;30.466;2022-11-03T01:39:11;41.35;;;18.10;;
35312;SDS011;21425;50.454;30.466;2022-11-03T01:41:38;39.80;;;16.88;;
35312;SDS011;21425;50.454;30.466;2022-11-03T01:46:33;38.67;;;17.35;;
35312;SDS011;21425;50.454;30.466;2022-11-03T01:49:22;40.83;;;17.65;;
35312;SDS011;21425;50.454;30.466;2022-11-03T01:51:53;39.95;;;17.65;;
35312;SDS011;21425;50.454;30.466;2022-11-03T01:54:25;39.97;;;17.55;;
35312;SDS011;21425;50.454;30.466;2022-11-03T01:56:53;40.88;;;17.63;;
35312;SDS011;21425;50.454;30.466;2022-11-03T01:59:20;39.78;;;18.83;;
35312;SDS011;21425;50.454;30.466;2022-11-03T02:01:47;45.33;;;18.63;;
35312;SDS011;21425;50.454;30.466;2022-11-03T02:04:15;46.05;;;18.25;;
35312;SDS011;21425;50.454;30.466;2022-11-03T02:07:01;41.42;;;17.33;;
35312;SDS011;21425;50.454;30.466;2022-11-03T02:09:33;42.25;;;18.05;;
35312;SDS011;21425;50.454;30.466;2022-11-03T02:11:58;48.33;;;18.90;;
35312;SDS011;21425;50.454;30.466;2022-11-03T02:14:30;44.85;;;19.05;;
35312;SDS011;21425;50.454;30.466;2022-11-03T02:16:59;43.10;;;18.67;;
35312;SDS011;21425;50.454;30.466;2022-11-03T02:19:41;45.15;;;18.48;;
35312;SDS011;21425;50.454;30.466;2022-11-03T02:25:35;41.42;;;17.58;;
35312;SDS011;21425;50.454;30.466;2022-11-03T02:28:01;48.78;;;20.63;;
35312;SDS011;21425;50.454;30.466;2022-11-03T02:30:30;40.72;;;20.02;;
35312;SDS011;21425;50.454;30.466;2022-11-03T02:35:46;40.53;;;17.63;;
35312;SDS011;21425;50.454;30.466;2022-11-03T02:38:13;40.10;;;19.08;;
35312;SDS011;21425;50.454;30.466;2022-11-03T02:40:43;41.28;;;18.77;;
35312;SDS011;21425;50.454;30.466;2022-11-03T02:43:13;38.58;;;17.70;;
35312;SDS011;21425;50.454;30.466;2022-11-03T02:45:40;45.35;;;20.52;;
35312;SDS011;21425;50.454;30.466;2022-11-03T02:48:08;44.85;;;19.42;;
35312;SDS011;21425;50.454;30.466;2022-11-03T02:50:35;34.63;;;17.17;;
35312;SDS011;21425;50.454;30.466;2022-11-03T02:53:01;43.65;;;18.75;;
35312;SDS011;21425;50.454;30.466;2022-11-03T02:55:36;40.65;;;18.77;;
35312;SDS011;21425;50.454;30.466;2022-11-03T02:58:16;47.33;;;19.83;;
35312;SDS011;21425;50.454;30.466;2022-11-03T03:00:54;42.85;;;18.83;;
35312;SDS011;21425;50.454;30.466;2022-11-03T03:03:27;38.95;;;19.23;;
35312;SDS011;21425;50.454;30.466;2022-11-03T03:06:03;45.78;;;19.23;;
35312;SDS011;21425;50.454;30.466;2022-11-03T03:08:33;52.55;;;21.15;;
35312;SDS011;21425;50.454;30.466;2022-11-03T03:11:02;45.13;;;18.25;;
35312;SDS011;21425;50.454;30.466;2022-11-03T03:13:29;54.63;;;23.10;;
35312;SDS011;21425;50.454;30.466;2022-11-03T03:16:04;44.63;;;19.98;;
35312;SDS011;21425;50.454;30.466;2022-11-03T03:18:58;48.30;;;20.58;;
35312;SDS011;21425;50.454;30.466;2022-11-03T03:21:28;57.10;;;22.95;;
35312;SDS011;21425;50.454;30.466;2022-11-03T03:23:59;58.08;;;22.40;;
35312;SDS011;21425;50.454;30.466;2022-11-03T03:26:33;55.40;;;21.33;;
35312;SDS011;21425;50.454;30.466;2022-11-03T03:29:03;47.23;;;20.13;;
35312;SDS011;21425;50.454;30.466;2022-11-03T03:31:35;43.42;;;19.00;;
35312;SDS011;21425;50.454;30.466;2022-11-03T03:34:04;56.38;;;20.83;;
35312;SDS011;21425;50.454;30.466;2022-11-03T03:36:31;56.67;;;20.38;;
35312;SDS011;21425;50.454;30.466;2022-11-03T03:38:59;50.58;;;19.63;;
35312;SDS011;21425;50.454;30.466;2022-11-03T03:41:28;46.65;;;19.42;;
35312;SDS011;21425;50.454;30.466;2022-11-03T03:43:57;54.53;;;21.02;;
35312;SDS011;21425;50.454;30.466;2022-11-03T03:46:31;49.33;;;18.40;;
35312;SDS011;21425;50.454;30.466;2022-11-03T03:49:01;50.00;;;19.27;;
35312;SDS011;21425;50.454;30.466;2022-11-03T03:51:27;44.92;;;18.80;;
35312;SDS011;21425;50.454;30.466;2022-11-03T03:53:53;53.22;;;19.40;;
35312;SDS011;21425;50.454;30.466;2022-11-03T03:56:24;54.05;;;19.88;;
35312;SDS011;21425;50.454;30.466;2022-11-03T03:58:53;48.55;;;20.42;;
35312;SDS011;21425;50.454;30.466;2022-11-03T04:01:19;54.80;;;21.50;;
35312;SDS011;21425;50.454;30.466;2022-11-03T04:03:44;45.92;;;18.02;;
35312;SDS011;21425;50.454;30.466;2022-11-03T04:06:10;40.42;;;16.77;;
35312;SDS011;21425;50.454;30.466;2022-11-03T04:08:35;53.72;;;19.42;;
35312;SDS011;21425;50.454;30.466;2022-11-03T04:11:01;50.33;;;19.65;;
35312;SDS011;21425;50.454;30.466;2022-11-03T04:16:29;46.80;;;18.60;;
35312;SDS011;21425;50.454;30.466;2022-11-03T04:19:13;48.03;;;19.10;;
35312;SDS011;21425;50.454;30.466;2022-11-03T04:21:57;49.42;;;19.30;;
35312;SDS011;21425;50.454;30.466;2022-11-03T04:24:41;51.15;;;18.38;;
35312;SDS011;21425;50.454;30.466;2022-11-03T04:27:15;40.63;;;15.85;;
35312;SDS011;21425;50.454;30.466;2022-11-03T04:29:44;47.50;;;18.00;;
35312;SDS011;21425;50.454;30.466;2022-11-03T04:32:11;38.25;;;16.40;;
35312;SDS011;21425;50.454;30.466;2022-11-03T04:34:40;53.78;;;19.33;;
35312;SDS011;21425;50.454;30.466;2022-11-03T04:37:12;53.10;;;18.77;;
35312;SDS011;21425;50.454;30.466;2022-11-03T04:39:39;42.43;;;16.33;;
35312;SDS011;21425;50.454;30.466;2022-11-03T04:42:16;38.95;;;15.77;;
35312;SDS011;21425;50.454;30.466;2022-11-03T04:44:43;43.97;;;18.70;;
35312;SDS011;21425;50.454;30.466;2022-11-03T04:47:10;39.55;;;15.98;;
35312;SDS011;21425;50.454;30.466;2022-11-03T04:49:37;53.55;;;20.60;;
35312;SDS011;21425;50.454;30.466;2022-11-03T04:52:04;40.28;;;15.82;;
35312;SDS011;21425;50.454;30.466;2022-11-03T04:54:34;24.73;;;10.55;;
35312;SDS011;21425;50.454;30.466;2022-11-03T04:57:04;31.55;;;12.70;;
35312;SDS011;21425;50.454;30.466;2022-11-03T04:59:33;40.05;;;15.95;;
35312;SDS011;21425;50.454;30.466;2022-11-03T05:01:58;30.60;;;14.40;;
35312;SDS011;21425;50.454;30.466;2022-11-03T05:04:24;31.75;;;12.82;;
35312;SDS011;21425;50.454;30.466;2022-11-03T05:06:51;33.05;;;13.25;;
35312;SDS011;21425;50.454;30.466;2022-11-03T05:09:22;27.48;;;13.30;;
35312;SDS011;21425;50.454;30.466;2022-11-03T05:11:51;31.33;;;12.30;;
35312;SDS011;21425;50.454;30.466;2022-11-03T05:14:20;25.13;;;11.55;;
35312;SDS011;21425;50.454;30.466;2022-11-03T05:16:47;29.42;;;12.77;;
35312;SDS011;21425;50.454;30.466;2022-11-03T05:19:17;28.10;;;11.82;;
35312;SDS011;21425;50.454;30.466;2022-11-03T05:21:47;31.30;;;12.10;;
35312;SDS011;21425;50.454;30.466;2022-11-03T05:24:14;26.27;;;11.32;;
35312;SDS011;21425;50.454;30.466;2022-11-03T05:26:41;22.92;;;10.43;;
35312;SDS011;21425;50.454;30.466;2022-11-03T05:29:23;26.20;;;11.30;;
35312;SDS011;21425;50.454;30.466;2022-11-03T05:31:54;30.48;;;13.10;;
35312;SDS011;21425;50.454;30.466;2022-11-03T05:36:59;28.92;;;11.65;;
35312;SDS011;21425;50.454;30.466;2022-11-03T05:39:48;22.45;;;12.05;;
35312;SDS011;21425;50.454;30.466;2022-11-03T05:42:37;22.42;;;10.43;;
35312;SDS011;21425;50.454;30.466;2022-11-03T05:45:07;20.05;;;9.23;;
35312;SDS011;21425;50.454;30.466;2022-11-03T05:47:40;24.92;;;10.88;;
35312;SDS011;21425;50.454;30.466;2022-11-03T05:50:17;22.48;;;9.98;;
35312;SDS011;21425;50.454;30.466;2022-11-03T05:52:51;23.63;;;10.30;;
35312;SDS011;21425;50.454;30.466;2022-11-03T05:55:24;22.90;;;9.13;;
35312;SDS011;21425;50.454;30.466;2022-11-03T05:57:54;19.75;;;9.23;;
35312;SDS011;21425;50.454;30.466;2022-11-03T06:00:26;23.13;;;10.85;;
35312;SDS011;21425;50.454;30.466;2022-11-03T06:02:57;19.92;;;9.23;;
35312;SDS011;21425;50.454;30.466;2022-11-03T06:05:24;24.23;;;10.70;;
35312;SDS011;21425;50.454;30.466;2022-11-03T06:07:55;18.67;;;9.18;;
35312;SDS011;21425;50.454;30.466;2022-11-03T06:10:25;17.95;;;8.20;;
35312;SDS011;21425;50.454;30.466;2022-11-03T06:12:54;17.42;;;7.00;;
35312;SDS011;21425;50.454;30.466;2022-11-03T06:15:42;14.77;;;7.30;;
35312;SDS011;21425;50.454;30.466;2022-11-03T06:18:12;17.83;;;8.05;;
35312;SDS011;21425;50.454;30.466;2022-11-03T06:20:40;15.60;;;7.10;;
35312;SDS011;21425;50.454;30.466;2022-11-03T06:23:14;14.52;;;7.38;;
35312;SDS011;21425;50.454;30.466;2022-11-03T06:25:41;14.90;;;7.25;;
35312;SDS011;21425;50.454;30.466;2022-11-03T06:28:09;13.82;;;7.85;;
35312;SDS011;21425;50.454;30.466;2022-11-03T06:30:41;15.13;;;7.47;;
35312;SDS011;21425;50.454;30.466;2022-11-03T06:35:42;16.63;;;6.70;;
35312;SDS011;21425;50.454;30.466;2022-11-03T06:38:16;16.83;;;7.13;;
35312;SDS011;21425;50.454;30.466;2022-11-03T06:40:46;14.90;;;7.45;;
35312;SDS011;21425;50.454;30.466;2022-11-03T06:43:19;14.65;;;7.88;;
35312;SDS011;21425;50.454;30.466;2022-11-03T06:45:53;15.13;;;7.78;;
35312;SDS011;21425;50.454;30.466;2022-11-03T06:48:25;18.33;;;8.13;;
35312;SDS011;21425;50.454;30.466;2022-11-03T06:50:54;15.18;;;8.57;;
35312;SDS011;21425;50.454;30.466;2022-11-03T06:53:22;18.73;;;8.38;;
35312;SDS011;21425;50.454;30.466;2022-11-03T06:55:51;23.95;;;10.20;;
35312;SDS011;21425;50.454;30.466;2022-11-03T06:58:28;23.45;;;10.85;;
35312;SDS011;21425;50.454;30.466;2022-11-03T07:00:59;32.25;;;11.25;;
35312;SDS011;21425;50.454;30.466;2022-11-03T10:25:26;3.67;;;1.95;;
35312;SDS011;21425;50.454;30.466;2022-11-03T10:28:09;4.22;;;2.00;;
35312;SDS011;21425;50.454;30.466;2022-11-03T10:30:47;3.25;;;1.90;;
35312;SDS011;21425;50.454;30.466;2022-11-03T10:33:24;2.30;;;1.38;;
35312;SDS011;21425;50.454;30.466;2022-11-03T10:35:53;2.72;;;1.30;;
35312;SDS011;21425;50.454;30.466;2022-11-03T10:38:24;3.70;;;1.40;;
35312;SDS011;21425;50.454;30.466;2022-11-03T10:40:51;2.63;;;1.50;;
35312;SDS011;21425;50.454;30.466;2022-11-03T10:43:17;2.33;;;1.58;;
35312;SDS011;21425;50.454;30.466;2022-11-03T10:45:43;2.55;;;1.40;;
35312;SDS011;21425;50.454;30.466;2022-11-03T10:48:09;2.95;;;1.48;;
35312;SDS011;21425;50.454;30.466;2022-11-03T10:50:35;2.35;;;1.45;;
35312;SDS011;21425;50.454;30.466;2022-11-03T10:53:03;2.50;;;1.38;;
35312;SDS011;21425;50.454;30.466;2022-11-03T10:55:30;2.35;;;1.27;;
35312;SDS011;21425;50.454;30.466;2022-11-03T10:57:55;3.58;;;1.77;;
35312;SDS011;21425;50.454;30.466;2022-11-03T11:20:52;2.20;;;1.90;;
35312;SDS011;21425;50.454;30.466;2022-11-03T11:28:40;8.07;;;3.30;;
35312;SDS011;21425;50.454;30.466;2022-11-03T11:49:47;9.45;;;4.88;;
35312;SDS011;21425;50.454;30.466;2022-11-03T11:52:13;8.75;;;5.20;;
35312;SDS011;21425;50.454;30.466;2022-11-03T11:54:42;6.18;;;3.72;;
35312;SDS011;21425;50.454;30.466;2022-11-03T11:57:20;5.32;;;3.45;;
35312;SDS011;21425;50.454;30.466;2022-11-03T11:59:47;7.53;;;4.40;;
35312;SDS011;21425;50.454;30.466;2022-11-03T12:02:21;7.63;;;4.15;;
35312;SDS011;21425;50.454;30.466;2022-11-03T12:04:50;4.93;;;3.47;;
35312;SDS011;21425;50.454;30.466;2022-11-03T12:07:33;6.53;;;4.47;;
35312;SDS011;21425;50.454;30.466;2022-11-03T12:12:35;6.55;;;4.03;;
35312;SDS011;21425;50.454;30.466;2022-11-03T12:15:00;6.57;;;3.85;;
35312;SDS011;21425;50.454;30.466;2022-11-03T12:19:52;7.85;;;4.00;;
35312;SDS011;21425;50.454;30.466;2022-11-03T23:55:01;20.02;;;12.23;;
35312;SDS011;21425;50.454;30.466;2022-11-03T23:57:26;24.75;;;10.88;;
